Overview Statistics Trail Chart Weather Telemetry Raw packets
 

This is the latest recevied weather packets stored in our database for station/object KD8DNO-13. If no packets are shown the sender has not sent any weather packets the latest 10 day(s).

<< 40 41 42 43 44 45 46 >>
Time Temp. Humidity Pressure Rain* Wind** Luminosity Snow
1788278884 23.89° C 88% 1021.3 hPa 0.51 mm - - -
1788278584 23.89° C 87% 1021.3 hPa 0.51 mm - - -
1788278283 24.44° C 86% 1021.3 hPa 0.51 mm - - -
1788277984 24.44° C 86% 1021.3 hPa 0.51 mm - - -
1788277683 24.44° C 86% 1022.3 hPa 0.51 mm - - -
1788277383 25° C 84% 1022.3 hPa 0 mm - - -
1788277084 25° C 84% 1022 hPa 0 mm - - -
1788276784 26.11° C 82% 1022 hPa 0 mm - - -
1788276484 26.67° C 81% 1022 hPa 0 mm - - -
1788276184 26.67° C 81% 1021.3 hPa 0 mm - - -
1788275883 27.22° C 81% 1021.3 hPa 0 mm - - -
1788275584 27.22° C 78% 1020.9 hPa 0 mm - - -
1788275283 27.78° C 78% 1020.9 hPa 0 mm - - -
1788274983 27.78° C 78% 1020.6 hPa 0 mm - - -
1788274683 27.78° C 77% 1020.6 hPa 0 mm - - -
1788274383 27.22° C 78% 1020.6 hPa 0 mm - - -
1788274083 27.78° C 76% 1020.3 hPa 0 mm - - -
1788273784 27.78° C 76% 1020.3 hPa 0 mm - - -
1788273483 27.78° C 77% 1020.3 hPa 0 mm - - -
1788273183 27.78° C 76% 1020.3 hPa 0 mm - - -
1788272883 27.78° C 77% 1020.3 hPa 0 mm - - -
1788272585 27.22° C 77% 1020.3 hPa 0 mm - - -
1788272284 27.22° C 78% 1020.3 hPa 0 mm - - -
1788271984 26.67° C 80% 1020.3 hPa 0 mm - - -
1788271683 26.67° C 80% 1020.3 hPa 0 mm - - -

* Rain latest hour (hover to see other rain measurements)
** Current wind speed in m/s (hover to see current wind gust speed)